createdAt,value
2023-05-11T00:00:34.059Z,3.40
2023-05-11T00:04:01.595Z,3.30
2023-05-11T00:07:28.194Z,3.40
2023-05-11T00:10:55.836Z,3.30
2023-05-11T00:14:23.653Z,3.40
2023-05-11T00:17:52.896Z,3.00
2023-05-11T00:21:20.863Z,3.20
2023-05-11T00:24:47.478Z,3.10
2023-05-11T00:28:15.181Z,3.80
2023-05-11T00:31:42.589Z,3.60
2023-05-11T00:35:11.813Z,3.30
2023-05-11T00:38:41.378Z,3.30
2023-05-11T00:42:08.723Z,3.10
2023-05-11T00:45:37.734Z,3.40
2023-05-11T00:49:05.661Z,3.40
2023-05-11T00:52:33.447Z,3.00
2023-05-11T00:56:00.780Z,3.30
2023-05-11T00:59:28.424Z,3.40
2023-05-11T01:02:56.133Z,3.60
2023-05-11T01:06:33.630Z,3.40
2023-05-11T01:10:05.709Z,3.30
2023-05-11T01:13:36.435Z,3.80
2023-05-11T01:17:09.156Z,3.60
2023-05-11T01:20:37.540Z,3.60
2023-05-11T01:24:31.031Z,3.40
2023-05-11T01:28:18.799Z,3.80
2023-05-11T01:31:49.007Z,3.20
2023-05-11T01:35:23.638Z,3.30
2023-05-11T01:38:56.293Z,3.80
2023-05-11T01:42:28.050Z,3.70
2023-05-11T01:45:57.705Z,3.10
2023-05-11T01:49:25.264Z,3.30
2023-05-11T01:52:53.331Z,3.50
2023-05-11T01:56:23.249Z,3.80
2023-05-11T01:59:52.592Z,3.60
2023-05-11T02:03:21.829Z,3.70
2023-05-11T02:06:50.937Z,3.80
2023-05-11T02:10:20.433Z,4.30
2023-05-11T02:13:51.116Z,3.20
2023-05-11T02:17:22.433Z,3.60
2023-05-11T02:20:52.075Z,3.60
2023-05-11T02:24:20.846Z,3.70
2023-05-11T02:27:49.208Z,3.90
2023-05-11T02:31:21.355Z,3.80
2023-05-11T02:34:56.128Z,3.80
2023-05-11T02:38:27.269Z,4.40
2023-05-11T02:42:00.711Z,4.10
2023-05-11T02:49:01.317Z,4.40
2023-05-11T02:52:31.875Z,4.00
2023-05-11T02:55:59.906Z,4.10
2023-05-11T02:59:27.513Z,4.90
2023-05-11T03:02:54.430Z,3.70
2023-05-11T03:06:22.193Z,4.30
2023-05-11T03:09:49.794Z,3.70
2023-05-11T03:13:17.597Z,3.40
2023-05-11T03:16:45.867Z,3.50
2023-05-11T03:20:15.395Z,4.00
2023-05-11T03:23:44.608Z,3.70
2023-05-11T03:27:13.239Z,3.60
2023-05-11T03:30:42.192Z,4.20
2023-05-11T03:34:11.941Z,3.80
2023-05-11T03:37:41.376Z,4.30
2023-05-11T03:41:13.059Z,3.90
2023-05-11T03:44:41.980Z,3.60
2023-05-11T03:48:10.215Z,3.80
2023-05-11T03:51:38.559Z,3.70
2023-05-11T03:55:05.960Z,4.10
2023-05-11T03:58:33.519Z,3.40
2023-05-11T04:02:01.759Z,4.00
2023-05-11T04:05:29.629Z,3.80
2023-05-11T04:08:56.502Z,4.30
2023-05-11T04:12:23.143Z,4.00
2023-05-11T04:15:51.737Z,3.40
2023-05-11T04:19:21.144Z,3.50
2023-05-11T04:22:48.173Z,4.00
2023-05-11T04:26:15.854Z,3.90
2023-05-11T04:29:43.878Z,3.80
2023-05-11T04:33:17.979Z,4.40
2023-05-11T04:36:48.205Z,4.00
2023-05-11T04:40:16.326Z,3.80
2023-05-11T04:43:44.524Z,4.20
2023-05-11T04:47:11.884Z,4.30
2023-05-11T04:50:39.851Z,3.90
2023-05-11T04:54:10.564Z,4.00
2023-05-11T04:57:40.511Z,3.90
2023-05-11T05:01:10.964Z,5.00
2023-05-11T05:04:38.337Z,3.60
2023-05-11T05:08:07.585Z,3.90
2023-05-11T05:11:34.750Z,3.80
2023-05-11T05:15:01.468Z,3.70
2023-05-11T05:18:28.612Z,4.40
2023-05-11T05:21:55.979Z,3.80
2023-05-11T05:25:23.771Z,4.60
2023-05-11T05:28:50.836Z,4.20
2023-05-11T05:32:20.591Z,4.20
2023-05-11T05:35:48.482Z,3.70
2023-05-11T05:39:17.177Z,3.90
2023-05-11T05:42:43.749Z,4.00
2023-05-11T05:46:15.007Z,3.70
2023-05-11T05:49:43.357Z,3.70
2023-05-11T05:53:10.148Z,3.80
2023-05-11T05:56:37.795Z,3.50
2023-05-11T06:00:09.823Z,3.60
2023-05-11T06:03:40.463Z,3.90
2023-05-11T06:07:07.962Z,4.10
2023-05-11T06:10:35.394Z,3.30
2023-05-11T06:14:02.327Z,4.30
2023-05-11T06:17:31.089Z,3.40
2023-05-11T06:20:58.348Z,3.20
2023-05-11T06:24:32.467Z,3.50
2023-05-11T06:27:59.384Z,3.10
2023-05-11T06:31:27.272Z,3.70
2023-05-11T06:34:54.806Z,3.30
2023-05-11T06:38:23.188Z,3.70
2023-05-11T06:41:53.909Z,3.40
2023-05-11T06:45:22.970Z,3.30
2023-05-11T06:48:50.622Z,3.10
2023-05-11T06:52:18.798Z,2.60
2023-05-11T06:55:47.596Z,3.20
2023-05-11T06:59:15.495Z,3.50
2023-05-11T07:02:43.249Z,3.40
2023-05-11T07:06:11.773Z,3.20
2023-05-11T07:09:40.036Z,3.10
2023-05-11T07:13:10.234Z,3.10
2023-05-11T07:16:39.534Z,3.00
2023-05-11T07:20:06.988Z,2.60
2023-05-11T07:23:34.738Z,3.40
2023-05-11T07:27:02.275Z,2.90
2023-05-11T07:30:29.763Z,3.20
2023-05-11T07:33:57.486Z,3.00
2023-05-11T07:37:24.767Z,3.00
2023-05-11T07:40:52.103Z,3.00
2023-05-11T07:44:19.726Z,3.40
2023-05-11T07:47:46.516Z,3.10
2023-05-11T07:51:13.722Z,2.40
2023-05-11T07:54:41.357Z,2.80
2023-05-11T07:58:08.560Z,2.90
2023-05-11T08:01:35.772Z,2.90
2023-05-11T08:05:02.575Z,2.90
2023-05-11T08:08:32.543Z,2.90
2023-05-11T08:12:01.851Z,3.40
2023-05-11T08:15:28.998Z,2.60
2023-05-11T08:18:55.580Z,2.40
2023-05-11T08:22:22.552Z,2.10
2023-05-11T08:25:57.723Z,2.20
2023-05-11T08:29:27.640Z,2.20
2023-05-11T08:32:59.036Z,2.20
2023-05-11T08:36:27.211Z,2.20
2023-05-11T08:39:54.531Z,2.00
2023-05-11T08:43:24.113Z,2.00
2023-05-11T08:47:08.554Z,2.20
2023-05-11T08:50:41.813Z,2.10
2023-05-11T08:54:09.001Z,1.90
2023-05-11T08:57:38.082Z,2.20
2023-05-11T09:01:06.061Z,2.40
2023-05-11T09:04:34.028Z,1.90
2023-05-11T09:08:05.525Z,1.80
2023-05-11T09:11:32.169Z,2.40
2023-05-11T09:15:02.518Z,2.10
2023-05-11T09:18:30.098Z,1.90
2023-05-11T09:21:57.358Z,1.90
2023-05-11T09:25:25.793Z,1.90
2023-05-11T09:29:02.935Z,1.80
2023-05-11T09:32:47.770Z,2.00
2023-05-11T09:36:26.355Z,2.20
2023-05-11T09:46:53.020Z,1.70
2023-05-11T09:50:26.334Z,1.60
2023-05-11T09:57:30.000Z,1.90
2023-05-11T10:00:58.668Z,2.20
2023-05-11T10:04:32.715Z,1.70
2023-05-11T10:08:09.125Z,1.90
2023-05-11T10:11:36.520Z,1.80
2023-05-11T10:15:06.019Z,2.00
2023-05-11T10:18:33.360Z,1.50
2023-05-11T10:22:00.980Z,1.90
2023-05-11T10:25:29.413Z,1.80
2023-05-11T10:28:57.223Z,2.00
2023-05-11T10:32:24.141Z,1.80
2023-05-11T10:35:54.065Z,1.60
2023-05-11T10:39:23.044Z,1.80
2023-05-11T10:43:17.788Z,1.90
2023-05-11T10:47:02.425Z,1.70
2023-05-11T10:50:49.284Z,2.00
2023-05-11T10:54:40.940Z,2.10
2023-05-11T10:58:12.170Z,1.70
2023-05-11T11:01:42.149Z,2.00
2023-05-11T11:05:17.796Z,1.90
2023-05-11T11:09:03.170Z,1.70
2023-05-11T11:12:31.346Z,1.80
2023-05-11T11:16:16.719Z,1.70
2023-05-11T11:19:45.101Z,1.80
2023-05-11T11:23:46.040Z,1.90
2023-05-11T11:27:14.971Z,1.80
2023-05-11T11:30:45.351Z,1.80
2023-05-11T11:34:39.956Z,1.90
2023-05-11T11:38:07.931Z,2.10
2023-05-11T11:41:35.793Z,1.70
2023-05-11T11:45:45.519Z,1.70
2023-05-11T11:49:14.689Z,2.00
2023-05-11T11:52:46.941Z,1.80
2023-05-11T11:56:41.128Z,2.40
2023-05-11T12:00:13.269Z,2.10
2023-05-11T12:03:48.304Z,2.30
2023-05-11T12:07:17.315Z,2.10
2023-05-11T12:10:46.745Z,2.70
2023-05-11T12:14:17.421Z,1.60
2023-05-11T12:17:45.423Z,1.60
2023-05-11T12:21:23.022Z,1.70
2023-05-11T12:24:50.266Z,1.90
2023-05-11T12:28:23.381Z,1.80
2023-05-11T12:31:50.467Z,1.60
2023-05-11T12:35:23.674Z,2.10
2023-05-11T12:38:53.670Z,1.80
2023-05-11T12:42:23.573Z,1.90
2023-05-11T12:45:52.008Z,2.40
2023-05-11T12:49:26.664Z,2.10
2023-05-11T12:52:55.557Z,2.50
2023-05-11T12:56:22.961Z,1.90
2023-05-11T12:59:50.213Z,2.00
2023-05-11T13:03:22.506Z,2.00
2023-05-11T13:06:49.515Z,2.00
2023-05-11T13:10:16.869Z,1.70
2023-05-11T13:13:44.108Z,1.90
2023-05-11T13:17:11.390Z,2.10
2023-05-11T13:20:39.161Z,2.00
2023-05-11T13:24:09.270Z,1.80
2023-05-11T13:27:37.154Z,1.60
2023-05-11T13:31:05.087Z,1.70
2023-05-11T13:34:32.649Z,2.00
2023-05-11T13:37:59.449Z,2.10
2023-05-11T13:41:29.097Z,1.90
2023-05-11T13:44:59.039Z,2.00
2023-05-11T13:48:27.931Z,1.80
2023-05-11T13:51:55.979Z,1.90
2023-05-11T13:55:24.635Z,1.40
2023-05-11T13:58:52.063Z,1.60
2023-05-11T14:02:19.123Z,1.70
2023-05-11T14:05:46.310Z,1.70
2023-05-11T14:09:16.121Z,1.30
2023-05-11T14:12:44.456Z,1.60
2023-05-11T14:16:14.028Z,1.60
2023-05-11T14:19:41.457Z,1.50
2023-05-11T14:23:08.750Z,1.70
2023-05-11T14:26:43.186Z,1.90
2023-05-11T14:30:20.136Z,2.00
2023-05-11T14:33:49.554Z,1.80
2023-05-11T14:37:16.440Z,1.90
2023-05-11T14:40:44.747Z,1.70
2023-05-11T14:44:13.965Z,2.00
2023-05-11T14:47:42.650Z,1.80
2023-05-11T14:51:10.378Z,1.90
2023-05-11T14:54:39.802Z,1.80
2023-05-11T14:58:09.609Z,1.90
2023-05-11T15:01:39.560Z,2.20
2023-05-11T15:05:13.718Z,2.00
2023-05-11T15:08:43.518Z,1.80
2023-05-11T15:12:15.162Z,2.00
2023-05-11T15:15:47.672Z,2.10
2023-05-11T15:19:15.617Z,1.90
2023-05-11T15:22:51.118Z,1.90
2023-05-11T15:26:19.507Z,1.50
2023-05-11T15:29:47.076Z,2.80
2023-05-11T15:33:16.402Z,2.00
2023-05-11T15:36:46.244Z,1.80
2023-05-11T15:40:18.468Z,1.40
2023-05-11T15:43:45.591Z,1.70
2023-05-11T15:47:12.712Z,1.90
2023-05-11T15:50:42.077Z,1.70
2023-05-11T15:54:11.398Z,1.60
2023-05-11T15:57:40.026Z,1.60
2023-05-11T16:01:06.773Z,1.80
2023-05-11T16:04:35.805Z,2.00
2023-05-11T16:08:02.515Z,2.10
2023-05-11T16:11:31.733Z,1.50
2023-05-11T16:14:58.801Z,1.60
2023-05-11T16:18:26.777Z,2.00
2023-05-11T16:21:53.983Z,2.00
2023-05-11T16:25:21.706Z,1.60
2023-05-11T16:28:49.367Z,1.80
2023-05-11T16:32:17.830Z,2.00
2023-05-11T16:35:45.014Z,1.70
2023-05-11T16:39:12.282Z,2.00
2023-05-11T16:42:41.316Z,1.80
2023-05-11T16:46:08.151Z,1.70
2023-05-11T16:49:35.125Z,1.80
2023-05-11T16:53:03.767Z,1.60
2023-05-11T16:56:31.815Z,1.80
2023-05-11T16:59:59.381Z,2.00
2023-05-11T17:03:27.245Z,1.60
2023-05-11T17:06:58.017Z,1.90
2023-05-11T17:10:25.034Z,1.70
2023-05-11T17:13:54.798Z,1.80
2023-05-11T17:17:22.375Z,1.70
2023-05-11T17:20:56.320Z,1.80
2023-05-11T17:24:23.495Z,1.70
2023-05-11T17:27:50.241Z,1.70
2023-05-11T17:31:18.262Z,1.90
2023-05-11T17:34:46.917Z,2.40
2023-05-11T17:38:17.375Z,1.90
2023-05-11T17:41:45.406Z,1.90
2023-05-11T17:45:14.650Z,2.10
2023-05-11T17:48:41.590Z,1.90
2023-05-11T17:52:11.617Z,1.90
2023-05-11T17:55:41.845Z,2.00
2023-05-11T17:59:09.855Z,2.10
2023-05-11T18:02:37.596Z,1.70
2023-05-11T18:06:08.492Z,1.70
2023-05-11T18:09:41.519Z,2.00
2023-05-11T18:13:09.617Z,1.90
2023-05-11T18:16:38.133Z,2.20
2023-05-11T18:20:08.367Z,2.30
2023-05-11T18:23:36.279Z,2.00
2023-05-11T18:27:08.761Z,2.40
2023-05-11T18:30:37.229Z,2.30
2023-05-11T18:34:06.797Z,2.20
2023-05-11T18:37:40.636Z,2.00
2023-05-11T18:41:09.686Z,2.20
2023-05-11T18:44:37.309Z,2.30
2023-05-11T18:48:05.173Z,2.40
2023-05-11T18:51:35.180Z,2.40
2023-05-11T18:55:02.769Z,2.60
2023-05-11T18:58:29.776Z,3.10
2023-05-11T19:01:56.963Z,3.30
2023-05-11T19:05:26.485Z,3.00
2023-05-11T19:08:55.829Z,2.90
2023-05-11T19:12:23.735Z,3.40
2023-05-11T19:15:51.198Z,3.20
2023-05-11T19:19:19.544Z,3.10
2023-05-11T19:22:47.265Z,4.00
2023-05-11T19:26:19.779Z,3.60
2023-05-11T19:29:50.957Z,3.40
2023-05-11T19:33:20.351Z,3.50
2023-05-11T19:36:51.770Z,3.90
2023-05-11T19:43:52.776Z,3.80
2023-05-11T19:47:23.082Z,3.60
2023-05-11T19:50:50.142Z,3.50
2023-05-11T19:54:19.671Z,3.80
2023-05-11T19:57:47.126Z,3.90
2023-05-11T20:01:21.276Z,4.10
2023-05-11T20:04:48.519Z,4.30
2023-05-11T20:08:20.050Z,4.20
2023-05-11T20:11:54.637Z,3.70
2023-05-11T20:15:22.645Z,3.60
2023-05-11T20:18:50.552Z,3.90
2023-05-11T20:22:18.147Z,3.80
2023-05-11T20:25:48.539Z,4.00
2023-05-11T20:29:17.167Z,4.20
2023-05-11T20:36:16.194Z,4.80
2023-05-11T20:39:43.248Z,5.10
2023-05-11T20:43:14.752Z,4.80
2023-05-11T20:46:43.535Z,5.00
2023-05-11T20:50:12.416Z,5.10
2023-05-11T20:53:40.281Z,5.30
2023-05-11T20:57:08.527Z,6.40
2023-05-11T21:00:35.526Z,5.00
2023-05-11T21:04:03.750Z,5.70
2023-05-11T21:07:31.408Z,5.40
2023-05-11T21:10:59.543Z,5.90
2023-05-11T21:14:26.606Z,5.20
2023-05-11T21:17:53.700Z,5.30
2023-05-11T21:21:21.860Z,5.10
2023-05-11T21:24:51.003Z,4.80
2023-05-11T21:28:22.962Z,4.70
2023-05-11T21:31:49.904Z,5.50
2023-05-11T21:35:17.073Z,4.60
2023-05-11T21:38:44.271Z,3.90
2023-05-11T21:42:13.411Z,4.50
2023-05-11T21:45:45.484Z,4.00
2023-05-11T21:49:18.225Z,4.10
2023-05-11T21:52:46.994Z,3.70
2023-05-11T21:56:15.187Z,3.80
2023-05-11T21:59:42.449Z,3.80
2023-05-11T22:03:11.272Z,4.10
2023-05-11T22:06:41.384Z,4.10
2023-05-11T22:10:11.540Z,4.20
2023-05-11T22:13:40.206Z,4.10
2023-05-11T22:17:11.123Z,3.60
2023-05-11T22:20:39.288Z,4.40
2023-05-11T22:24:11.232Z,4.10
2023-05-11T22:27:40.756Z,4.00
2023-05-11T22:31:11.106Z,4.00
2023-05-11T22:34:40.390Z,4.60
2023-05-11T22:38:07.722Z,4.20
2023-05-11T22:41:36.177Z,3.80
2023-05-11T22:45:03.486Z,4.10
2023-05-11T22:48:30.909Z,4.00
2023-05-11T22:52:01.938Z,3.50
2023-05-11T22:55:42.989Z,4.20
2023-05-11T22:59:10.173Z,3.80
2023-05-11T23:02:39.653Z,4.40
2023-05-11T23:06:08.406Z,3.90
2023-05-11T23:09:37.188Z,4.00
2023-05-11T23:13:05.337Z,4.10
2023-05-11T23:16:35.575Z,3.60
2023-05-11T23:20:05.407Z,4.00
2023-05-11T23:23:35.843Z,3.70
2023-05-11T23:27:06.573Z,3.50
2023-05-11T23:30:37.379Z,3.40
2023-05-11T23:34:04.151Z,3.50
2023-05-11T23:37:30.883Z,4.00
2023-05-11T23:40:58.453Z,3.80
2023-05-11T23:44:26.233Z,3.60
2023-05-11T23:47:53.936Z,3.50
2023-05-11T23:51:22.850Z,3.40
2023-05-11T23:54:53.045Z,3.70
2023-05-11T23:58:21.105Z,3.70
